Time;durP1;ratioP1;P1;durP2;ratioP2;P2;SDS_P1;SDS_P2;PMS_P1;PMS_P2;Temp;Humidity;BMP_temperature;BMP_pressure;BME280_temperature;BME280_humidity;BME280_pressure;Samples;Min_cycle;Max_cycle;Signal;HPM_P1;HPM_P2
2023/04/23 00:00:47;;;;;;;74.70;31.80;;;;;;;9.56;100.00;100660.91;5048807;28;20033;-82
2023/04/23 00:03:13;;;;;;;71.85;32.03;;;;;;;9.62;100.00;100649.44;5048726;28;20531;-82
2023/04/23 00:05:41;;;;;;;83.18;34.72;;;;;;;9.54;100.00;100660.47;5030150;28;20500;-81
2023/04/23 00:08:07;;;;;;;79.65;32.80;;;;;;;9.56;100.00;100646.94;5028464;28;20033;-81
2023/04/23 00:10:32;;;;;;;82.97;33.78;;;;;;;9.54;100.00;100654.91;5048859;28;20036;-81
2023/04/23 00:12:58;;;;;;;87.47;38.78;;;;;;;9.41;100.00;100647.91;5029546;28;20118;-81
2023/04/23 00:15:24;;;;;;;80.28;34.17;;;;;;;9.41;100.00;100650.72;5046310;28;20036;-82
2023/04/23 00:17:49;;;;;;;83.97;35.20;;;;;;;9.22;100.00;100648.81;5024102;28;20631;-81
2023/04/23 00:20:16;;;;;;;80.65;35.00;;;;;;;9.51;100.00;100652.06;5050678;28;20040;-82
2023/04/23 00:22:42;;;;;;;86.07;36.47;;;;;;;9.36;100.00;100651.06;5043873;28;20100;-81
2023/04/23 00:25:08;;;;;;;87.55;38.13;;;;;;;9.06;100.00;100640.56;5043802;28;20033;-82
2023/04/23 00:27:34;;;;;;;80.40;35.40;;;;;;;9.31;100.00;100646.56;5045832;28;20037;-82
2023/04/23 00:30:00;;;;;;;89.38;39.47;;;;;;;9.25;100.00;100641.69;5044063;28;20033;-82
2023/04/23 00:32:25;;;;;;;82.05;34.97;;;;;;;9.10;100.00;100646.22;5026928;28;20072;-82
2023/04/23 00:34:51;;;;;;;76.05;35.05;;;;;;;9.36;100.00;100637.88;5028999;28;20063;-81
2023/04/23 00:37:17;;;;;;;83.30;38.05;;;;;;;9.31;100.00;100637.38;5039743;28;20382;-81
2023/04/23 00:39:43;;;;;;;83.50;35.63;;;;;;;9.32;100.00;100644.59;5044602;28;20029;-81
2023/04/23 00:42:12;;;;;;;82.13;35.38;;;;;;;9.47;100.00;100637.25;5041503;28;20040;-81
2023/04/23 00:44:39;;;;;;;83.93;35.42;;;;;;;9.38;100.00;100640.28;5040973;28;20066;-81
2023/04/23 00:47:06;;;;;;;84.78;37.85;;;;;;;9.35;100.00;100641.03;5043499;28;20033;-81
2023/04/23 00:49:32;;;;;;;78.18;36.40;;;;;;;9.48;100.00;100634.03;5023946;28;20033;-81
2023/04/23 00:51:59;;;;;;;80.57;36.95;;;;;;;9.42;100.00;100629.97;5041866;28;20169;-81
2023/04/23 00:54:25;;;;;;;80.50;33.85;;;;;;;9.37;100.00;100619.13;5040792;28;20024;-81
2023/04/23 00:56:50;;;;;;;78.53;36.10;;;;;;;9.39;100.00;100613.97;5023811;28;20504;-81
2023/04/23 00:59:17;;;;;;;81.28;34.10;;;;;;;9.61;100.00;100619.84;5024763;28;20419;-81
2023/04/23 01:01:44;;;;;;;85.40;34.67;;;;;;;9.59;100.00;100613.84;5039181;28;20035;-81
2023/04/23 01:04:12;;;;;;;80.55;36.22;;;;;;;9.61;100.00;100611.47;5024078;28;20033;-81
2023/04/23 01:06:38;;;;;;;78.15;34.65;;;;;;;9.65;100.00;100615.13;5024663;28;20095;-81
2023/04/23 01:09:05;;;;;;;81.75;33.90;;;;;;;9.52;100.00;100620.13;5023371;28;20021;-81
2023/04/23 01:11:31;;;;;;;86.32;37.83;;;;;;;9.62;100.00;100613.09;5044304;28;20025;-81
2023/04/23 01:13:58;;;;;;;86.35;35.95;;;;;;;9.60;100.00;100619.06;5023868;28;20468;-81
2023/04/23 01:16:23;;;;;;;86.93;37.05;;;;;;;9.63;100.00;100612.69;5022200;28;20035;-81
2023/04/23 01:18:48;;;;;;;80.93;35.67;;;;;;;9.70;100.00;100612.03;5021687;28;20041;-81
2023/04/23 01:21:16;;;;;;;87.55;37.42;;;;;;;9.61;100.00;100605.88;5021138;28;20025;-81
2023/04/23 01:23:42;;;;;;;77.15;33.83;;;;;;;9.55;100.00;100606.22;5022551;28;20025;-81
2023/04/23 01:26:09;;;;;;;87.88;34.60;;;;;;;9.65;100.00;100601.94;5022361;28;20554;-81
2023/04/23 01:28:35;;;;;;;81.65;34.00;;;;;;;9.59;100.00;100594.28;5032802;28;20549;-81
2023/04/23 01:31:01;;;;;;;85.95;37.72;;;;;;;9.62;100.00;100604.72;5028548;28;20108;-81
2023/04/23 01:33:26;;;;;;;86.10;38.17;;;;;;;9.60;100.00;100607.09;5039133;28;20497;-81
2023/04/23 01:35:53;;;;;;;88.63;37.50;;;;;;;9.53;100.00;100608.59;5021870;28;20036;-81
2023/04/23 01:38:21;;;;;;;81.63;37.25;;;;;;;9.39;100.00;100596.41;5037482;28;20031;-81
2023/04/23 01:40:46;;;;;;;83.75;37.65;;;;;;;9.49;100.00;100602.16;5048688;28;20033;-80
2023/04/23 01:43:12;;;;;;;84.00;36.53;;;;;;;9.36;100.00;100607.16;5045527;28;20051;-81
2023/04/23 01:45:37;;;;;;;83.60;34.35;;;;;;;9.31;100.00;100595.50;5042658;28;20091;-81
2023/04/23 01:48:03;;;;;;;89.97;38.08;;;;;;;9.24;100.00;100603.78;5029403;28;20029;-81
2023/04/23 01:50:28;;;;;;;88.03;39.40;;;;;;;9.35;100.00;100597.16;5037625;28;20374;-81
2023/04/23 01:52:54;;;;;;;86.65;41.13;;;;;;;9.05;100.00;100599.09;5040326;28;20112;-81
2023/04/23 01:55:19;;;;;;;95.78;38.08;;;;;;;9.10;100.00;100593.97;5025694;28;20107;-81
2023/04/23 01:57:45;;;;;;;87.53;37.33;;;;;;;9.18;100.00;100591.31;5039304;28;20063;-79
2023/04/23 02:00:13;;;;;;;85.45;38.97;;;;;;;9.09;100.00;100581.19;5036561;28;20444;-81
2023/04/23 02:02:40;;;;;;;86.72;39.15;;;;;;;9.20;100.00;100584.16;5040767;28;20495;-81
2023/04/23 02:05:12;;;;;;;82.65;36.08;;;;;;;9.21;100.00;100593.34;5020406;28;20037;-82
2023/04/23 02:07:38;;;;;;;92.90;37.57;;;;;;;9.18;100.00;100599.69;5029547;28;20025;-81
2023/04/23 02:10:04;;;;;;;85.72;37.47;;;;;;;9.10;100.00;100582.81;5016239;28;20535;-81
2023/04/23 02:12:30;;;;;;;82.05;35.20;;;;;;;9.09;100.00;100583.19;5033353;28;20063;-81
2023/04/23 02:14:55;;;;;;;80.35;35.33;;;;;;;8.97;100.00;100581.41;5020498;28;20048;-81
2023/04/23 02:17:21;;;;;;;79.60;35.70;;;;;;;8.92;100.00;100578.94;5020413;28;20036;-80
2023/04/23 02:19:50;;;;;;;83.65;36.30;;;;;;;8.77;100.00;100574.28;5031883;28;20045;-81
2023/04/23 02:22:16;;;;;;;82.05;34.03;;;;;;;8.92;100.00;100570.56;5020679;28;20130;-81
2023/04/23 02:24:43;;;;;;;86.25;40.50;;;;;;;8.71;100.00;100565.44;5039035;28;20066;-82
2023/04/23 02:27:09;;;;;;;80.13;37.60;;;;;;;8.87;100.00;100570.88;5021685;28;21995;-81
2023/04/23 02:29:35;;;;;;;77.03;34.72;;;;;;;8.96;100.00;100563.06;5021592;28;20028;-81
2023/04/23 02:32:01;;;;;;;81.82;36.40;;;;;;;9.17;100.00;100565.38;5039733;28;20036;-81
2023/04/23 02:34:26;;;;;;;88.53;39.47;;;;;;;9.15;100.00;100565.75;5043830;28;20047;-81
2023/04/23 02:36:52;;;;;;;82.15;37.10;;;;;;;9.09;100.00;100564.44;5033005;28;20052;-81
2023/04/23 02:39:17;;;;;;;92.57;40.58;;;;;;;9.16;100.00;100558.16;5039251;28;20153;-81
2023/04/23 02:41:43;;;;;;;90.78;40.20;;;;;;;9.19;100.00;100567.78;5022104;28;20075;-81
2023/04/23 02:44:08;;;;;;;81.55;35.95;;;;;;;9.15;100.00;100559.34;5026376;28;20056;-81
2023/04/23 02:46:35;;;;;;;84.13;35.47;;;;;;;9.06;100.00;100556.00;5044389;28;20389;-81
2023/04/23 02:49:00;;;;;;;86.68;37.25;;;;;;;9.01;100.00;100557.16;5017221;28;20049;-81
2023/04/23 02:51:26;;;;;;;103.15;40.33;;;;;;;8.92;100.00;100563.00;5016601;28;20040;-81
2023/04/23 02:53:51;;;;;;;93.25;37.05;;;;;;;8.81;100.00;100552.81;5016489;28;20033;-81
2023/04/23 02:56:16;;;;;;;88.60;37.75;;;;;;;8.84;100.00;100555.69;5015124;28;20536;-81
2023/04/23 02:58:42;;;;;;;88.57;38.33;;;;;;;8.89;100.00;100554.56;5035895;28;20060;-81
2023/04/23 03:01:07;;;;;;;91.10;38.25;;;;;;;8.80;100.00;100554.03;5038386;28;20481;-81
2023/04/23 03:03:33;;;;;;;92.53;39.13;;;;;;;8.89;100.00;100549.78;5037305;28;20148;-81
2023/04/23 03:06:00;;;;;;;78.20;36.10;;;;;;;8.95;100.00;100545.47;5028779;28;20470;-81
2023/04/23 03:08:26;;;;;;;98.25;39.10;;;;;;;8.76;100.00;100542.78;5015360;28;20509;-81
2023/04/23 03:10:51;;;;;;;85.28;36.35;;;;;;;8.93;100.00;100541.47;5001654;28;20038;-81
2023/04/23 03:13:17;;;;;;;83.10;36.60;;;;;;;8.86;100.00;100544.94;5000408;28;20029;-81
2023/04/23 03:15:42;;;;;;;80.18;37.42;;;;;;;8.94;100.00;100538.31;5004755;28;20037;-81
2023/04/23 03:18:08;;;;;;;91.32;37.10;;;;;;;8.82;100.00;100534.91;5001292;28;20060;-81
2023/04/23 03:20:34;;;;;;;81.63;37.83;;;;;;;8.90;100.00;100533.84;4996766;28;20029;-81
2023/04/23 03:23:00;;;;;;;95.22;41.42;;;;;;;8.71;100.00;100535.53;5019336;28;20022;-81
2023/04/23 03:25:26;;;;;;;87.10;37.38;;;;;;;8.73;100.00;100527.59;5003913;28;20029;-81
2023/04/23 03:27:52;;;;;;;84.25;38.47;;;;;;;8.94;100.00;100523.53;5009913;28;20033;-82
2023/04/23 03:30:17;;;;;;;98.70;41.88;;;;;;;8.69;100.00;100506.41;5016760;28;20383;-82
2023/04/23 03:32:43;;;;;;;86.25;38.95;;;;;;;8.86;100.00;100536.56;5019653;28;20049;-82
2023/04/23 03:35:08;;;;;;;84.25;36.75;;;;;;;8.74;100.00;100532.00;5011932;28;20025;-82
2023/04/23 03:37:34;;;;;;;87.28;37.13;;;;;;;8.88;100.00;100516.69;5007674;28;20041;-81
2023/04/23 03:40:02;;;;;;;82.85;36.20;;;;;;;8.90;100.00;100526.28;5002381;28;20029;-81
2023/04/23 03:42:27;;;;;;;94.35;40.30;;;;;;;8.79;100.00;100514.16;5004250;28;20149;-81
2023/04/23 03:44:53;;;;;;;83.13;36.47;;;;;;;8.93;100.00;100519.94;4998534;28;20033;-81
2023/04/23 03:47:18;;;;;;;80.03;34.58;;;;;;;8.95;100.00;100523.16;5032007;28;20119;-81
2023/04/23 03:49:44;;;;;;;84.10;37.35;;;;;;;8.72;100.00;100508.44;5003190;28;20383;-81
2023/04/23 03:52:09;;;;;;;86.50;35.85;;;;;;;8.88;100.00;100516.69;5003853;28;20034;-81
2023/04/23 03:54:35;;;;;;;82.75;35.92;;;;;;;8.88;100.00;100523.06;5005884;28;20056;-81
2023/04/23 03:57:00;;;;;;;86.88;37.20;;;;;;;9.00;100.00;100518.44;5012628;28;20037;-82
2023/04/23 03:59:26;;;;;;;86.82;35.90;;;;;;;9.02;100.00;100505.69;4997440;28;20967;-81
2023/04/23 04:01:51;;;;;;;73.57;33.80;;;;;;;8.97;100.00;100500.44;5018968;28;20029;-81
2023/04/23 04:04:16;;;;;;;84.70;37.65;;;;;;;8.98;100.00;100499.28;5000882;28;20033;-82
2023/04/23 04:06:42;;;;;;;77.97;36.55;;;;;;;9.06;100.00;100505.75;5013467;28;20136;-81
2023/04/23 04:09:07;;;;;;;89.10;37.33;;;;;;;8.92;100.00;100503.56;5034671;28;20037;-81
2023/04/23 04:11:33;;;;;;;85.50;37.15;;;;;;;8.96;100.00;100504.44;5019462;28;20033;-82
2023/04/23 04:13:58;;;;;;;82.90;37.38;;;;;;;8.93;100.00;100502.38;5015618;28;21307;-82
2023/04/23 04:16:24;;;;;;;81.15;36.75;;;;;;;8.81;100.00;100506.19;5022882;28;20044;-81
2023/04/23 04:18:49;;;;;;;83.82;35.17;;;;;;;8.65;100.00;100497.97;5031491;28;21098;-81
2023/04/23 04:21:16;;;;;;;77.50;36.40;;;;;;;8.63;100.00;100489.16;5017710;28;20025;-81
2023/04/23 04:23:42;;;;;;;80.13;33.90;;;;;;;8.55;100.00;100484.66;5031711;28;20057;-81
2023/04/23 04:26:07;;;;;;;80.88;38.03;;;;;;;8.63;100.00;100494.75;5033092;28;20017;-81
2023/04/23 04:28:35;;;;;;;85.88;35.90;;;;;;;8.64;100.00;100496.34;5021610;28;20033;-81
2023/04/23 04:31:01;;;;;;;79.63;36.17;;;;;;;8.54;100.00;100491.44;5022982;28;20459;-81
2023/04/23 04:33:27;;;;;;;88.55;36.97;;;;;;;8.47;100.00;100480.13;5024068;28;20029;-81
2023/04/23 04:35:53;;;;;;;82.38;35.35;;;;;;;8.59;100.00;100496.69;5036830;28;20400;-82
2023/04/23 04:38:20;;;;;;;88.18;39.30;;;;;;;8.31;100.00;100483.03;5036802;28;20037;-81
2023/04/23 04:40:48;;;;;;;83.70;36.45;;;;;;;8.35;100.00;100478.34;5017949;28;20029;-82
2023/04/23 04:43:14;;;;;;;81.15;36.50;;;;;;;8.50;100.00;100484.97;5017259;28;20413;-82
2023/04/23 04:45:39;;;;;;;83.65;36.63;;;;;;;8.40;100.00;100485.56;5019861;28;20071;-82
2023/04/23 04:48:04;;;;;;;79.97;35.80;;;;;;;8.39;100.00;100487.56;5036625;28;20505;-82
2023/04/23 04:50:30;;;;;;;89.20;38.13;;;;;;;8.37;100.00;100506.66;5035418;28;20550;-82
2023/04/23 04:52:55;;;;;;;79.97;35.17;;;;;;;8.42;100.00;100499.97;5017826;28;20064;-82
2023/04/23 04:55:21;;;;;;;82.72;35.78;;;;;;;8.35;100.00;100506.22;5041031;28;20068;-82
2023/04/23 04:57:46;;;;;;;78.45;35.50;;;;;;;8.44;100.00;100508.78;5024422;28;20084;-82
2023/04/23 05:00:28;;;;;;;79.28;33.50;;;;;;;8.78;100.00;100506.94;5020288;28;20046;-82
2023/04/23 05:02:54;;;;;;;68.50;31.88;;;;;;;8.59;100.00;100505.03;5019323;28;20104;-82
2023/04/23 05:05:22;;;;;;;71.78;33.30;;;;;;;8.43;100.00;100502.41;5026190;28;20389;-82
2023/04/23 05:07:47;;;;;;;85.78;34.33;;;;;;;8.40;100.00;100502.31;5038929;28;20021;-82
2023/04/23 05:10:14;;;;;;;75.75;33.70;;;;;;;8.57;100.00;100510.19;5044012;28;20091;-81
2023/04/23 05:12:41;;;;;;;83.15;37.08;;;;;;;8.38;100.00;100497.09;5041024;28;20468;-82
2023/04/23 05:15:13;;;;;;;84.95;35.33;;;;;;;8.39;100.00;100492.31;5017157;28;20087;-82
2023/04/23 05:17:39;;;;;;;;;;;;;;;8.48;100.00;100502.09;5032048;28;20108;-82
2023/04/23 05:20:07;;;;;;;87.93;34.75;;;;;;;8.37;100.00;100480.72;5014302;28;20141;-82
2023/04/23 05:22:32;;;;;;;75.30;34.33;;;;;;;8.41;100.00;100490.00;5018353;28;20495;-82
2023/04/23 05:24:57;;;;;;;85.13;35.15;;;;;;;8.50;100.00;100496.94;5030298;28;20055;-82
2023/04/23 05:27:23;;;;;;;73.90;32.38;;;;;;;8.49;100.00;100494.50;5039143;28;20064;-82
2023/04/23 05:29:48;;;;;;;82.28;35.83;;;;;;;8.32;100.00;100501.38;5026177;28;20035;-82
2023/04/23 05:32:14;;;;;;;72.07;33.58;;;;;;;8.41;100.00;100503.94;5043613;28;20031;-82
2023/04/23 05:34:39;;;;;;;74.28;34.08;;;;;;;8.52;100.00;100504.94;5023568;28;20627;-82
2023/04/23 05:37:05;;;;;;;76.22;32.42;;;;;;;8.63;100.00;100503.13;5035912;28;20032;-82
2023/04/23 05:39:30;;;;;;;89.65;37.63;;;;;;;8.52;100.00;100510.53;5036518;28;20508;-82
2023/04/23 05:41:56;;;;;;;80.30;34.28;;;;;;;8.46;100.00;100501.66;5018227;28;20039;-82
2023/04/23 05:44:22;;;;;;;76.13;31.80;;;;;;;8.68;100.00;100494.41;5018879;28;20021;-82
2023/04/23 05:46:47;;;;;;;76.55;33.88;;;;;;;8.73;100.00;100493.31;5019229;28;20547;-82
2023/04/23 05:49:13;;;;;;;79.15;33.67;;;;;;;8.65;100.00;100486.81;5022271;28;20029;-82
2023/04/23 05:51:38;;;;;;;86.18;35.30;;;;;;;8.52;100.00;100482.63;5022479;28;20029;-82
2023/04/23 05:54:03;;;;;;;68.22;31.38;;;;;;;8.51;100.00;100487.38;5014756;28;20061;-82
2023/04/23 05:56:29;;;;;;;76.38;33.40;;;;;;;8.51;100.00;100492.16;5015745;28;20029;-82
2023/04/23 05:58:54;;;;;;;77.55;34.20;;;;;;;8.63;100.00;100499.53;5034279;28;20076;-82
2023/04/23 06:01:19;;;;;;;84.65;36.17;;;;;;;8.51;100.00;100498.53;5005427;28;20137;-82
2023/04/23 06:03:45;;;;;;;83.53;34.17;;;;;;;8.67;100.00;100503.19;5006257;28;20033;-82
2023/04/23 06:06:11;;;;;;;86.47;34.35;;;;;;;8.71;100.00;100490.91;5011316;28;20079;-82
2023/04/23 06:08:37;;;;;;;75.55;34.25;;;;;;;8.69;100.00;100493.25;5010277;28;20122;-82
2023/04/23 06:11:03;;;;;;;73.00;33.10;;;;;;;8.82;100.00;100484.69;5015742;28;20032;-82
2023/04/23 06:13:29;;;;;;;77.88;31.58;;;;;;;8.87;100.00;100495.50;5014287;28;20038;-82
2023/04/23 06:15:55;;;;;;;74.28;30.70;;;;;;;8.87;100.00;100487.13;5023694;28;20049;-82
2023/04/23 06:18:20;;;;;;;75.80;33.92;;;;;;;8.89;100.00;100485.56;5022621;28;20389;-82
2023/04/23 06:20:47;;;;;;;84.22;36.28;;;;;;;8.83;100.00;100492.66;5031655;28;20103;-82
2023/04/23 06:23:12;;;;;;;73.78;32.90;;;;;;;8.84;100.00;100487.91;5032918;28;21798;-82
2023/04/23 06:25:38;;;;;;;74.45;32.15;;;;;;;8.86;100.00;100485.53;5028871;28;20554;-82
2023/04/23 06:28:03;;;;;;;75.88;32.65;;;;;;;8.84;100.00;100487.91;5032131;28;20044;-82
2023/04/23 06:30:29;;;;;;;80.28;34.65;;;;;;;8.86;100.00;100485.53;5037719;28;20029;-82
2023/04/23 06:32:54;;;;;;;79.97;33.85;;;;;;;8.91;100.00;100488.00;5018688;28;20029;-82
2023/04/23 06:35:20;;;;;;;73.78;32.05;;;;;;;8.96;100.00;100484.91;5036583;28;20064;-82
2023/04/23 06:37:45;;;;;;;76.90;33.63;;;;;;;8.92;100.00;100484.03;5019760;28;20432;-82
2023/04/23 06:40:11;;;;;;;77.55;32.22;;;;;;;8.95;100.00;100481.28;5038229;28;20598;-82
2023/04/23 06:42:36;;;;;;;70.63;31.73;;;;;;;8.94;100.00;100478.88;5023925;28;20051;-82
2023/04/23 06:45:04;;;;;;;75.07;30.90;;;;;;;8.89;100.00;100480.00;5021901;28;20179;-82
2023/04/23 06:47:30;;;;;;;75.03;31.17;;;;;;;8.95;100.00;100475.69;5013806;28;20040;-82
2023/04/23 06:49:56;;;;;;;64.68;29.90;;;;;;;9.01;100.00;100480.97;5014359;28;20032;-82
2023/04/23 06:52:22;;;;;;;71.13;32.20;;;;;;;9.05;100.00;100474.25;5019707;28;20025;-83
2023/04/23 06:54:47;;;;;;;66.13;29.63;;;;;;;9.19;100.00;100470.84;5021358;28;20036;-83
2023/04/23 06:57:12;;;;;;;78.05;30.65;;;;;;;9.19;100.00;100464.44;5019492;28;20021;-83
2023/04/23 06:59:38;;;;;;;70.20;31.92;;;;;;;9.31;100.00;100472.59;5020160;28;20031;-82
2023/04/23 07:02:03;;;;;;;69.15;30.60;;;;;;;9.38;100.00;100464.28;5016174;28;20037;-83
2023/04/23 07:04:29;;;;;;;71.72;32.97;;;;;;;9.48;100.00;100474.00;5011243;28;20045;-83
2023/04/23 07:06:54;;;;;;;71.03;32.33;;;;;;;9.47;100.00;100464.03;5019691;28;20061;-82
2023/04/23 07:09:19;;;;;;;68.15;32.08;;;;;;;9.61;100.00;100468.97;5040740;28;20072;-83
2023/04/23 07:11:45;;;;;;;76.25;32.35;;;;;;;9.73;100.00;100463.91;5035925;28;20052;-83
2023/04/23 07:14:10;;;;;;;73.80;30.98;;;;;;;9.69;100.00;100459.47;5034072;28;20124;-83
2023/04/23 07:16:35;;;;;;;64.00;30.48;;;;;;;9.72;100.00;100470.72;5033502;28;20025;-83
2023/04/23 07:19:01;;;;;;;67.40;30.65;;;;;;;9.83;100.00;100461.63;5035208;28;20020;-83
2023/04/23 07:21:28;;;;;;;68.60;31.95;;;;;;;10.01;100.00;100456.22;5036678;28;20029;-82
2023/04/23 07:24:05;;;;;;;65.30;29.95;;;;;;;10.09;100.00;100460.69;5032619;28;20040;-82
2023/04/23 07:26:31;;;;;;;73.13;31.75;;;;;;;10.08;100.00;100447.91;5026661;28;20024;-83
2023/04/23 07:28:57;;;;;;;69.05;30.13;;;;;;;10.18;100.00;100461.16;5036204;28;20036;-83
2023/04/23 07:31:22;;;;;;;66.05;28.60;;;;;;;10.19;100.00;100451.59;5042246;28;20025;-82
2023/04/23 07:33:48;;;;;;;63.92;27.92;;;;;;;10.30;100.00;100444.13;5030725;28;20079;-83
2023/04/23 07:36:14;;;;;;;62.03;28.10;;;;;;;10.31;100.00;100445.75;5026662;28;20528;-83
2023/04/23 07:38:39;;;;;;;58.80;28.15;;;;;;;10.42;100.00;100453.44;5038726;28;20362;-83
2023/04/23 07:41:05;;;;;;;63.78;27.65;;;;;;;10.54;100.00;100450.31;5019366;28;20040;-83
2023/04/23 07:43:30;;;;;;;62.20;27.58;;;;;;;10.59;100.00;100449.97;5042035;28;20033;-83
2023/04/23 07:45:55;;;;;;;62.38;26.70;;;;;;;10.68;100.00;100447.63;5025631;28;20120;-87
2023/04/23 07:48:21;;;;;;;66.25;29.27;;;;;;;10.77;100.00;100447.28;5037336;28;20056;-82
2023/04/23 07:50:46;;;;;;;57.95;24.33;;;;;;;10.87;100.00;100437.34;5038834;28;20484;-83
2023/04/23 07:53:12;;;;;;;55.15;25.25;;;;;;;10.94;100.00;100431.78;5017565;28;20128;-84
2023/04/23 07:55:37;;;;;;;58.00;27.35;;;;;;;11.08;100.00;100433.88;5034579;28;20033;-83
2023/04/23 07:58:02;;;;;;;58.88;26.00;;;;;;;11.32;100.00;100433.19;5037390;28;20056;-84
2023/04/23 08:00:28;;;;;;;47.15;22.98;;;;;;;11.21;100.00;100414.72;5016510;28;21152;-83
2023/04/23 08:02:53;;;;;;;47.47;24.52;;;;;;;11.49;100.00;100434.44;5019191;28;20045;-83
2023/04/23 08:05:19;;;;;;;49.40;23.02;;;;;;;11.54;100.00;100438.88;5033884;28;20536;-83
2023/04/23 08:07:44;;;;;;;53.35;24.58;;;;;;;11.80;100.00;100446.13;5034517;28;20033;-83
2023/04/23 08:10:10;;;;;;;49.22;23.88;;;;;;;11.85;100.00;100428.94;5033743;28;20371;-83
2023/04/23 08:12:35;;;;;;;53.50;23.70;;;;;;;11.89;100.00;100435.38;5044352;28;20032;-83
2023/04/23 08:15:01;;;;;;;51.08;23.88;;;;;;;11.82;100.00;100424.13;5029332;28;20111;-82
2023/04/23 08:17:26;;;;;;;46.13;21.38;;;;;;;11.92;100.00;100434.59;5041861;28;20148;-82
2023/04/23 08:19:52;;;;;;;41.53;18.92;;;;;;;12.09;100.00;100424.59;5037611;28;20033;-82
2023/04/23 08:22:17;;;;;;;47.00;21.83;;;;;;;12.27;100.00;100421.81;5028011;28;20280;-82
2023/04/23 08:24:45;;;;;;;46.10;21.08;;;;;;;12.24;100.00;100422.59;5021649;28;20398;-82
2023/04/23 08:27:10;;;;;;;40.10;19.58;;;;;;;12.36;100.00;100418.59;5022258;28;20485;-83
2023/04/23 08:29:36;;;;;;;42.10;17.95;;;;;;;12.28;100.00;100423.38;5044107;28;20071;-82
2023/04/23 08:32:01;;;;;;;42.97;21.02;;;;;;;12.58;100.00;100430.59;5043599;28;20396;-83
2023/04/23 08:34:26;;;;;;;40.65;20.13;;;;;;;12.49;100.00;100424.59;5008839;28;20103;-82
2023/04/23 08:36:52;;;;;;;36.15;18.88;;;;;;;12.54;100.00;100424.19;5007711;28;20035;-82
2023/04/23 08:39:18;;;;;;;39.75;17.80;;;;;;;13.02;100.00;100423.69;5036659;28;20493;-83
2023/04/23 08:41:48;;;;;;;38.60;19.05;;;;;;;13.03;100.00;100422.50;5038004;28;20116;-83
2023/04/23 08:44:20;;;;;;;35.47;18.90;;;;;;;13.01;100.00;100430.53;5047185;28;20036;-79
2023/04/23 08:46:47;;;;;;;34.20;16.23;;;;;;;13.09;100.00;100446.16;5043561;28;20037;-83
2023/04/23 08:49:17;;;;;;;37.00;18.17;;;;;;;13.21;100.00;100442.88;5021626;28;20451;-81
2023/04/23 08:51:52;;;;;;;33.15;17.63;;;;;;;13.20;100.00;100444.09;5020739;28;20020;-81
2023/04/23 08:54:24;;;;;;;34.53;17.10;;;;;;;13.29;100.00;100443.69;5011215;28;20394;-81
2023/04/23 08:56:50;;;;;;;28.90;16.73;;;;;;;13.74;100.00;100437.47;5046131;28;20045;-81
2023/04/23 08:59:17;;;;;;;23.42;14.43;;;;;;;13.67;100.00;100432.69;5023599;28;20037;-82
2023/04/23 09:01:42;;;;;;;27.60;12.88;;;;;;;13.74;100.00;100437.47;5020401;28;20435;-82
2023/04/23 09:04:09;;;;;;;24.83;13.05;;;;;;;13.93;100.00;100422.88;5019970;28;20029;-82
2023/04/23 09:06:35;;;;;;;25.25;13.85;;;;;;;13.97;100.00;100429.28;5029418;28;20077;-82
2023/04/23 09:09:01;;;;;;;23.63;13.32;;;;;;;13.88;100.00;100414.88;5044811;28;20033;-82
2023/04/23 09:11:28;;;;;;;20.83;11.25;;;;;;;14.06;100.00;100420.38;5042258;28;20480;-82
2023/04/23 09:13:55;;;;;;;22.80;10.45;;;;;;;14.44;100.00;100423.28;5037770;28;20049;-82
2023/04/23 09:16:21;;;;;;;20.73;11.85;;;;;;;14.59;100.00;100412.75;5015494;28;20377;-82
2023/04/23 09:18:46;;;;;;;25.73;12.98;;;;;;;14.66;100.00;100418.31;5019957;28;20029;-86
2023/04/23 09:21:13;;;;;;;15.73;8.50;;;;;;;16.25;100.00;100415.06;5023984;28;20051;-82
2023/04/23 09:23:40;;;;;;;15.30;7.35;;;;;;;16.37;100.00;100420.09;5023389;28;20039;-82
2023/04/23 09:26:05;;;;;;;17.55;8.63;;;;;;;16.61;100.00;100411.63;5037763;28;20029;-81
2023/04/23 09:28:35;;;;;;;14.98;7.13;;;;;;;16.82;100.00;100407.63;5028500;28;20136;-86
2023/04/23 09:31:01;;;;;;;12.73;7.22;;;;;;;16.78;100.00;100407.69;5019028;28;20052;-85
2023/04/23 09:33:27;;;;;;;12.93;7.63;;;;;;;17.03;98.18;100409.25;5022766;28;20777;-85
2023/04/23 09:35:53;;;;;;;12.27;7.05;;;;;;;17.05;98.16;100401.13;5026816;28;20108;-83
2023/04/23 09:38:19;;;;;;;12.85;6.22;;;;;;;17.25;96.75;100407.59;5039417;28;20565;-83
2023/04/23 09:40:44;;;;;;;8.80;5.80;;;;;;;17.11;97.44;100401.44;5044017;28;20032;-84
2023/04/23 09:43:10;;;;;;;13.65;6.55;;;;;;;16.93;97.25;100404.59;5023908;28;20021;-82
2023/04/23 09:45:36;;;;;;;12.50;6.20;;;;;;;16.58;95.42;100398.34;5022071;28;20595;-82
2023/04/23 09:48:02;;;;;;;12.82;7.05;;;;;;;17.06;97.55;100397.88;5027712;28;20485;-81
2023/04/23 09:50:37;;;;;;;9.15;6.10;;;;;;;16.80;98.10;100399.59;5042569;28;20032;-82
2023/04/23 09:53:03;;;;;;;11.85;7.22;;;;;;;16.55;100.00;100394.38;5041038;28;20040;-82
2023/04/23 09:55:36;;;;;;;12.90;6.85;;;;;;;16.15;100.00;100394.25;5029408;28;20028;-82
2023/04/23 09:58:03;;;;;;;10.52;5.93;;;;;;;16.77;98.59;100386.28;5021163;28;20117;-84
2023/04/23 10:00:33;;;;;;;9.27;5.30;;;;;;;16.98;97.29;100392.81;5023703;28;20036;-85
2023/04/23 10:02:59;;;;;;;10.25;6.70;;;;;;;16.71;95.53;100393.66;5020887;28;20021;-91
2023/04/23 10:05:24;;;;;;;10.75;5.53;;;;;;;16.66;98.74;100388.53;5022779;28;20024;-90
2023/04/23 10:07:49;;;;;;;12.38;6.75;;;;;;;16.13;97.76;100378.94;5024844;28;20056;-89
2023/04/23 10:10:16;;;;;;;12.40;6.78;;;;;;;16.54;98.97;100389.16;5043128;28;20104;-89
2023/04/23 10:12:42;;;;;;;9.88;5.85;;;;;;;16.28;100.00;100377.50;5031737;28;20032;-90
2023/04/23 10:15:10;;;;;;;9.90;5.88;;;;;;;16.55;95.54;100382.25;5044146;28;20024;-91
2023/04/23 10:17:36;;;;;;;12.65;5.88;;;;;;;16.62;98.06;100379.31;5042080;28;20029;-89
2023/04/23 10:20:02;;;;;;;10.38;5.60;;;;;;;16.70;95.72;100382.78;5042215;28;20079;-91
2023/04/23 10:22:29;;;;;;;11.90;5.35;;;;;;;16.72;94.92;100381.16;5026626;28;20035;-91
2023/04/23 10:24:57;;;;;;;12.32;5.60;;;;;;;16.62;95.52;100373.66;5028879;28;20071;-91
2023/04/23 10:27:27;;;;;;;11.02;5.93;;;;;;;16.38;98.79;100375.69;5032109;28;20090;-92
2023/04/23 10:29:53;;;;;;;9.98;4.82;;;;;;;16.64;95.52;100374.03;5041521;28;20715;-88
2023/04/23 10:32:19;;;;;;;9.07;5.22;;;;;;;16.60;96.47;100376.13;5024561;28;20060;-88
2023/04/23 10:34:45;;;;;;;6.22;4.50;;;;;;;16.83;95.37;100378.94;5038113;28;20494;-92
2023/04/23 10:37:12;;;;;;;6.45;4.15;;;;;;;16.93;95.14;100377.16;5027955;28;20052;-88
2023/04/23 10:39:39;;;;;;;9.52;5.03;;;;;;;16.92;95.18;100369.88;5028451;28;20375;-86
2023/04/23 10:42:05;;;;;;;10.20;4.38;;;;;;;16.62;95.78;100356.72;5024586;28;20055;-84
2023/04/23 10:44:36;;;;;;;6.95;4.43;;;;;;;17.02;94.13;100368.09;5019496;28;20061;-91
2023/04/23 10:47:03;;;;;;;8.68;3.50;;;;;;;17.01;91.92;100372.94;5015548;28;21335;-92
2023/04/23 10:49:33;;;;;;;3.40;2.42;;;;;;;16.78;81.98;100370.94;5021966;28;20024;-87
2023/04/23 10:52:07;;;;;;;4.68;2.17;;;;;;;16.90;83.25;100371.56;5021595;28;20063;-89
2023/04/23 10:54:34;;;;;;;7.75;4.05;;;;;;;16.82;92.52;100366.06;5020455;28;20804;-89
2023/04/23 10:57:02;;;;;;;5.60;3.42;;;;;;;16.71;94.20;100359.75;5019766;28;20036;-86
2023/04/23 10:59:38;;;;;;;7.63;2.97;;;;;;;16.61;82.25;100358.75;5029537;28;20041;-83
2023/04/23 11:02:13;;;;;;;15.60;4.07;;;;;;;16.80;91.58;100345.91;5023538;28;20025;-84
2023/04/23 11:04:45;;;;;;;8.57;4.15;;;;;;;16.81;94.11;100358.00;5022594;28;20099;-84